• Join FlightAware (Why Join?)
  • Login
  • US Flag 
01:01PM EDT


 

Airport Tracker/Info


-or-


 

Live Flight TrackerFlight Track Log ✈ AWE3287 ✈ 24-Apr-2013 ✈ KMHT - KPHL

Flight Track Log - Related Links

Times and Time Zones

All times are in EDT time to prevent confusion due to time zone crossing. See the AWE3287 flight status page for this flight to view local times or setup timezone preferences in your user account.

Time Position Orientation Groundspeed Altitude Reporting Facility
EDT Latitude Longitude Course Direction KTS MPH feet Rate Location/Type
11:34AM 42.9500 -71.4500 270° West 147 169 1,300  Level KA90
11:35AM 42.9922 -71.4692 342° North 163 188 2,900 1,920 Climbing Boston Center
11:36AM 42.9333 -71.7874 270° West  Level FlightAware Approximate
11:36AM 43.0386 -71.5339 314° West 211 243 5,400  Level Boston Center
11:37AM 42.9500 -71.9032 270° West  Level FlightAware Approximate
11:37AM 43.0789 -71.6100 306° West 244 281 8,300  Level Boston Center
11:38AM 42.9500 -72.0219 270° West  Level FlightAware Approximate
11:38AM 43.0817 -71.7153 272° West 267 307 11,200  Level Boston Center
11:39AM 42.9501 -72.1407 270° West  Level FlightAware Approximate
11:39AM 43.0761 -71.8319 266° West 303 349 13,300  Level Boston Center
11:40AM 43.0706 -71.9597 267° West 330 380 16,700 2,700 Climbing Boston Center
11:41AM 43.0647 -72.0819 266° West 325 374 18,800 1,860 Climbing Boston Center
11:42AM 43.0608 -72.1986 267° West 331 381 20,500 1,920 Climbing Boston Center
11:43AM 43.0589 -72.3350 269° West 351 404 22,700 1,740 Climbing Boston Center
11:44AM 43.0528 -72.4714 267° West 361 415 24,000 600 Climbing Boston Center
11:45AM 43.0422 -72.6133 264° West 373 429 24,000  Level Boston Center
11:46AM 43.0272 -72.7525 262° West 373 429 24,000  Level Boston Center
11:47AM 43.0206 -72.8944 266° West 373 429 24,000  Level Boston Center
11:48AM 43.0136 -73.0450 266° West 368 423 24,000  Level Boston Center
11:49AM 43.0064 -73.1839 266° West 368 423 24,000  Level Boston Center
11:50AM 42.9972 -73.3231 265° West 368 423 24,000  Level Boston Center
11:51AM 42.9506 -73.4272 239° Southwest 357 411 24,000  Level Boston Center
11:52AM 42.8911 -73.5339 233° Southwest 351 404 24,000  Level Boston Center
11:53AM 42.8294 -73.6575 236° Southwest 356 410 24,000  Level Boston Center
11:54AM 42.7719 -73.7581 232° Southwest 367 422 24,000  Level Boston Center
11:55AM 42.7017 -73.8978 236° Southwest 376 433 24,000  Level Boston Center
11:56AM 42.6481 -74.0125 238° Southwest 376 433 24,000  Level Boston Center
11:57AM 42.5836 -74.1433 236° Southwest 376 433 24,000  Level Boston Center
11:58AM 42.5147 -74.2850 237° Southwest 376 433 24,000  Level Boston Center
11:59AM 42.4586 -74.4017 237° Southwest 376 433 24,000  Level Boston Center
12:00PM 42.4003 -74.5150 235° Southwest 376 433 24,000  Level Boston Center
12:01PM 42.3419 -74.6169 232° Southwest 364 419 24,000  Level Boston Center
12:03PM 42.1958 -74.8156 225° Southwest 341 392 24,000 -180 Level New York Center
12:04PM 42.1303 -74.9067 226° Southwest 341 392 23,600 -1,020 Descending New York Center
12:05PM 42.0711 -74.9894 226° Southwest 341 392 22,000 -1,680 Descending New York Center
12:06PM 42.0078 -75.0747 225° Southwest 341 392 20,300 -1,560 Descending New York Center
12:07PM 41.9444 -75.1517 222° Southwest 330 380 19,000 -720 Descending New York Center
12:08PM 41.8631 -75.2186 211° Southwest 319 367 19,000  Level New York Center
12:09PM 41.7878 -75.2803 211° Southwest 314 361 19,000 -900 Level New York Center
12:11PM 41.6884 -75.3449 217° Southwest  Level FlightAware Approximate
12:11PM 41.6461 -75.3928 217° Southwest 319 367 16,300  Level New York Center
12:12PM 41.5750 -75.4489 211° Southwest 319 367 14,800 -1,740 Descending New York Center
12:13PM 41.4975 -75.5128 212° Southwest 308 354 12,900 -1,440 Descending New York Center
12:14PM 41.4267 -75.5686 211° Southwest 308 354 11,900 -540 Descending New York Center
12:15PM 41.3556 -75.6244 211° Southwest 308 354 11,900 -120 Level New York Center
12:16PM 41.2911 -75.6750 211° Southwest 308 354 11,700 -660 Descending New York Center
12:17PM 41.2133 -75.6886 187° South 292 336 10,700 -960 Descending New York Center
12:18PM 41.1217 -75.6903 181° South 300 345 9,900 -420 Descending New York Center
12:19PM 41.0364 -75.6867 178° South 305 351 9,900  Level New York Center
12:20PM 40.9531 -75.6889 181° South 305 351 10,000  Climbing New York Center
12:21PM 40.8697 -75.6883 180° South 305 351 10,000  Level New York Center
12:22PM 40.7886 -75.6853 178° South 305 351 10,000  Level New York Center
12:23PM 40.7156 -75.6856 180° South 305 351 10,000  Level New York Center
12:24PM 40.6239 -75.6844 179° South 305 351 10,000  Level New York Center
12:25PM 40.5469 -75.6192 147° Southeast 304 350 10,100  Climbing FAA TRACON SMA TRACON (SMA)
12:26PM 40.5319 -75.5900 124° Southeast 310 357 10,000 -180 Descending FAA TRACON SMA TRACON (SMA)
12:26PM 40.5169 -75.5608 124° Southeast 313 360 10,000  Level FAA TRACON SMA TRACON (SMA)
12:26PM 40.4983 -75.5247 124° Southeast 314 361 10,000  Level FAA TRACON SMA TRACON (SMA)
12:27PM 40.4831 -75.4953 124° Southeast 313 360 10,000 -180 Level FAA TRACON SMA TRACON (SMA)
12:27PM 40.4678 -75.4661 125° Southeast 313 360 9,900 -780 Descending FAA TRACON SMA TRACON (SMA)
12:27PM 40.4511 -75.4400 130° Southeast 304 350 9,500 -1,080 Descending FAA TRACON SMA TRACON (SMA)
12:28PM 40.4244 -75.4164 146° Southeast 297 342 9,200 -780 Descending FAA TRACON SMA TRACON (SMA)
12:28PM 40.4019 -75.4044 158° South 285 328 9,000 -300 Descending FAA TRACON SMA TRACON (SMA)
12:28PM 40.3736 -75.3881 156° South 288 331 9,000  Level FAA TRACON SMA TRACON (SMA)
12:29PM 40.3517 -75.3750 156° South 288 331 9,000  Level FAA TRACON SMA TRACON (SMA)
12:29PM 40.3292 -75.3619 156° South 285 328 9,000 -180 Level FAA TRACON SMA TRACON (SMA)
12:29PM 40.3047 -75.3475 156° South 253 291 8,900 -600 Descending FAA TRACON SMA TRACON (SMA)
12:30PM 40.2856 -75.3367 157° South 243 280 8,600 -960 Descending FAA TRACON SMA TRACON (SMA)
12:30PM 40.2678 -75.3253 154° Southeast 240 276 8,300 -1,020 Descending FAA TRACON SMA TRACON (SMA)
12:31PM 40.2264 -75.3025 157° South 229 264 7,600 -1,140 Descending FAA TRACON SMA TRACON (SMA)
12:31PM 40.2094 -75.2925 156° South 224 258 7,200 -960 Descending FAA TRACON SMA TRACON (SMA)
12:31PM 40.1914 -75.2825 157° South 224 258 7,000 -300 Descending FAA TRACON SMA TRACON (SMA)
12:32PM 40.1694 -75.2708 158° South 225 259 7,000  Level FAA TRACON SMA TRACON (SMA)
12:32PM 40.1522 -75.2589 152° Southeast 226 260 7,000 -480 Level FAA TRACON SMA TRACON (SMA)
12:32PM 40.1300 -75.2472 158° South 224 258 6,700 -960 Descending FAA TRACON SMA TRACON (SMA)
12:33PM 40.1122 -75.2367 156° South 223 257 6,400 -900 Descending FAA TRACON SMA TRACON (SMA)
12:33PM 40.0944 -75.2267 157° South 225 259 6,100 -600 Descending FAA TRACON SMA TRACON (SMA)
12:33PM 40.0722 -75.2139 156° South 224 258 6,000 -180 Descending FAA TRACON SMA TRACON (SMA)
12:34PM 40.0553 -75.2044 157° South 223 257 6,000  Level FAA TRACON SMA TRACON (SMA)
12:34PM 40.0364 -75.1981 165° South 223 257 6,000 120 Level FAA TRACON SMA TRACON (SMA)
12:34PM 40.0136 -75.1897 164° South 221 254 6,100  Climbing FAA TRACON SMA TRACON (SMA)
12:35PM 39.9964 -75.1786 154° Southeast 234 269 6,000 -180 Descending FAA TRACON SMA TRACON (SMA)
12:35PM 39.9856 -75.1592 126° Southeast 237 273 6,000  Level FAA TRACON SMA TRACON (SMA)
12:35PM 39.9822 -75.1306 99° East 232 267 6,000  Level FAA TRACON SMA TRACON (SMA)
12:36PM 39.9867 -75.1044 77° East 226 260 6,000  Level FAA TRACON SMA TRACON (SMA)
12:36PM 39.9925 -75.0792 73° East 231 266 6,000  Level FAA TRACON SMA TRACON (SMA)
12:36PM 39.9978 -75.0550 74° East 228 262 6,000  Level FAA TRACON SMA TRACON (SMA)
12:37PM 40.0047 -75.0242 74° East 229 264 6,000  Level FAA TRACON SMA TRACON (SMA)
12:37PM 40.0103 -74.9994 74° East 229 264 6,000  Level FAA TRACON SMA TRACON (SMA)
12:37PM 40.0153 -74.9722 77° East 228 262 6,000 -300 Level FAA TRACON SMA TRACON (SMA)
12:38PM 40.0219 -74.9475 71° East 205 236 5,800 -1,020 Descending FAA TRACON SMA TRACON (SMA)
12:38PM 40.0308 -74.9028 75° East 205 236 5,000 -1,380 Descending FAA TRACON SMA TRACON (SMA)
12:39PM 40.0197 -74.8814 124° Southeast 188 216 4,500 -1,320 Descending FAA TRACON SMA TRACON (SMA)
12:39PM 40.0042 -74.8742 160° South 178 205 4,100 -780 Descending FAA TRACON SMA TRACON (SMA)
12:39PM 39.9897 -74.8789 194° South 169 194 4,000 -600 Descending FAA TRACON SMA TRACON (SMA)
12:40PM 39.9778 -74.8931 222° Southwest 161 185 3,700 -1,020 Descending FAA TRACON SMA TRACON (SMA)
12:40PM 39.9647 -74.9092 223° Southwest 165 190 3,300 -1,020 Descending FAA TRACON SMA TRACON (SMA)
12:40PM 39.9578 -74.9186 226° Southwest 161 185 3,100 -540 Descending FAA TRACON SMA TRACON (SMA)
12:41PM 39.9453 -74.9342 224° Southwest 160 184 3,000 -180 Descending FAA TRACON SMA TRACON (SMA)
12:41PM 39.9358 -74.9467 225° Southwest 159 183 3,000  Level FAA TRACON SMA TRACON (SMA)
12:41PM 39.9267 -74.9592 226° Southwest 158 182 3,000  Level FAA TRACON SMA TRACON (SMA)
12:42PM 39.9225 -74.9811 256° West 154 177 3,000  Level FAA TRACON SMA TRACON (SMA)
12:42PM 39.9194 -74.9981 257° West 159 183 3,000  Level FAA TRACON SMA TRACON (SMA)
12:42PM 39.9161 -75.0158 256° West 161 185 3,000  Level FAA TRACON SMA TRACON (SMA)
12:43PM 39.9111 -75.0372 253° West 156 180 3,000 -420 Level FAA TRACON SMA TRACON (SMA)
12:43PM 39.9075 -75.0581 257° West 157 181 2,700 -840 Descending FAA TRACON SMA TRACON (SMA)
12:43PM 39.9053 -75.0714 258° West 161 185 2,500 -1,020 Descending FAA TRACON SMA TRACON (SMA)
12:44PM 39.9006 -75.0942 255° West 165 190 2,100 -1,080 Descending FAA TRACON SMA TRACON (SMA)
12:44PM 39.8972 -75.1122 256° West 166 191 1,800 -900 Descending FAA TRACON SMA TRACON (SMA)
12:44PM 39.8936 -75.1308 256° West 155 178 1,500 -780 Descending FAA TRACON SMA TRACON (SMA)
12:45PM 39.8897 -75.1453 251° West 137 158 1,300 -600 Descending FAA TRACON SMA TRACON (SMA)
12:45PM 39.8878 -75.1597 260° West 129 148 1,100 -600 Descending FAA TRACON SMA TRACON (SMA)
12:45PM 39.8850 -75.1733 255° West 128 147 900 -780 Descending FAA TRACON SMA TRACON (SMA)
12:46PM 39.8817 -75.1903 256° West 127 146 600 -780 Descending FAA TRACON SMA TRACON (SMA)
12:46PM 39.8789 -75.2039 255° West 126 145 400 -600 Descending FAA TRACON SMA TRACON (SMA)